Time;durP1;ratioP1;P1;durP2;ratioP2;P2;SDS_P1;SDS_P2;PMS_P1;PMS_P2;Temp;Humidity;BMP_temperature;BMP_pressure;BME280_temperature;BME280_humidity;BME280_pressure;Samples;Min_cycle;Max_cycle;Signal;HPM_P1;HPM_P2
2022/02/06 00:01:51;;;;;;;3.00;1.50;;;;;;;4.94;88.52;100260.95;107548;1282;60233;-84
2022/02/06 00:04:21;;;;;;;5.60;2.00;;;;;;;4.90;88.98;100265.16;107763;1281;61054;-84
2022/02/06 00:06:48;;;;;;;2.80;1.00;;;;;;;4.86;89.73;100262.37;107681;1282;76245;-84
2022/02/06 00:09:21;;;;;;;3.60;1.60;;;;;;;4.83;89.85;100257.41;107754;1282;71352;-83
2022/02/06 00:11:51;;;;;;;5.30;1.40;;;;;;;4.81;90.10;100248.13;107752;1281;72961;-84
2022/02/06 00:14:28;;;;;;;4.20;1.70;;;;;;;4.80;90.30;100259.95;107712;1282;61407;-84
2022/02/06 00:17:01;;;;;;;4.10;1.40;;;;;;;4.78;90.63;100242.67;107816;1282;60601;-84
2022/02/06 00:19:38;;;;;;;4.10;1.70;;;;;;;4.77;91.00;100246.64;107778;1281;75900;-83
2022/02/06 00:22:24;;;;;;;;;;;;;;;;;;;;;
2022/02/06 00:27:45;;;;;;;6.60;1.80;;;;;;;4.70;92.18;100233.07;107814;1281;61425;-83
2022/02/06 00:30:29;;;;;;;3.90;1.60;;;;;;;4.69;93.01;100219.88;107878;1281;61804;-84
2022/02/06 00:33:03;;;;;;;4.40;1.70;;;;;;;4.64;94.01;100210.88;107749;1282;76106;-83
2022/02/06 00:39:00;;;;;;;2.70;1.10;;;;;;;4.55;95.18;100209.48;107876;1282;73401;-83
2022/02/06 00:41:25;;;;;;;6.00;2.10;;;;;;;4.51;95.66;100203.39;107632;1282;60412;-82
2022/02/06 00:44:04;;;;;;;3.10;1.50;;;;;;;4.48;96.31;100198.56;107924;1281;61712;-83
2022/02/06 00:46:39;;;;;;;2.40;1.20;;;;;;;4.46;96.74;100199.32;107890;1281;76076;-84
2022/02/06 00:49:20;;;;;;;5.30;1.90;;;;;;;4.42;97.36;100193.54;107899;1282;71763;-83
2022/02/06 00:51:59;;;;;;;3.30;1.80;;;;;;;4.41;97.88;100191.00;107861;1281;74120;-81
2022/02/06 00:54:25;;;;;;;5.70;1.50;;;;;;;4.40;97.95;100179.06;107789;1282;62827;-81
2022/02/06 00:56:52;;;;;;;3.20;1.70;;;;;;;4.38;98.43;100174.13;107654;1282;61141;-81
2022/02/06 00:59:20;;;;;;;3.00;1.30;;;;;;;4.38;98.74;100175.58;107855;1282;75253;-81
2022/02/06 01:01:49;;;;;;;2.50;1.60;;;;;;;4.37;99.04;100176.00;107871;1282;71411;-81
2022/02/06 01:04:19;;;;;;;2.10;1.40;;;;;;;4.38;98.91;100161.77;107831;1281;73916;-81
2022/02/06 01:06:46;;;;;;;6.60;2.50;;;;;;;4.37;99.29;100160.25;107846;1282;63545;-81
2022/02/06 01:09:15;;;;;;;2.40;1.70;;;;;;;4.36;99.32;100167.14;107633;1282;61713;-81
2022/02/06 01:11:42;;;;;;;3.70;1.80;;;;;;;4.37;99.06;100160.94;107840;1282;75024;-81
2022/02/06 01:16:44;;;;;;;2.50;1.70;;;;;;;4.37;99.63;100139.11;107913;1282;72124;-83
2022/02/06 01:19:22;;;;;;;4.00;1.30;;;;;;;4.36;99.73;100130.39;107984;1282;63430;-83
2022/02/06 01:22:02;;;;;;;3.50;1.50;;;;;;;4.36;99.69;100124.83;107669;1284;59558;-83
2022/02/06 01:24:52;;;;;;;3.70;1.40;;;;;;;4.35;99.87;100112.28;107796;1282;75210;-84
2022/02/06 01:28:26;;;;;;;2.80;1.60;;;;;;;4.36;99.81;100114.00;107941;1281;72923;-83
2022/02/06 01:30:54;;;;;;;4.40;3.20;;;;;;;4.35;99.90;100088.84;107491;1284;73656;-84
2022/02/06 01:33:48;;;;;;;3.30;1.40;;;;;;;4.35;100.00;100078.59;107690;1282;61458;-83
2022/02/06 01:40:43;;;;;;;3.00;1.80;;;;;;;4.38;100.00;100065.48;107952;1282;75958;-85
2022/02/06 01:43:34;;;;;;;;;;;;;;;;;;;;;
2022/02/06 01:46:58;;;;;;;5.80;1.60;;;;;;;4.45;99.54;100069.96;107513;1284;72946;-85
2022/02/06 02:03:28;;;;;;;2.10;1.10;;;;;;;4.61;98.78;100040.96;107906;1282;72366;-85
2022/02/06 02:10:04;;;;;;;3.30;1.30;;;;;;;4.72;97.92;100037.77;107589;1282;60365;-85
2022/02/06 02:15:22;;;;;;;3.60;1.10;;;;;;;4.78;97.50;100034.53;107961;1282;72552;-84
2022/02/06 02:18:30;;;;;;;3.70;1.30;;;;;;;4.82;97.40;100027.15;107948;1281;73151;-84
2022/02/06 02:21:34;;;;;;;1.60;1.00;;;;;;;4.85;96.95;100023.54;107953;1281;62679;-84
2022/02/06 02:27:04;;;;;;;2.80;1.00;;;;;;;4.92;96.21;99995.98;107889;1282;75469;-83
2022/02/06 02:30:19;;;;;;;2.20;0.90;;;;;;;4.94;96.02;99991.44;107606;1284;73079;-81
2022/02/06 02:46:29;;;;;;;1.20;0.60;;;;;;;4.99;96.71;99950.81;107839;1282;73468;-82
2022/02/06 02:49:00;;;;;;;2.10;1.10;;;;;;;4.97;97.07;99942.95;107799;1283;61744;-81
2022/02/06 02:51:33;;;;;;;1.60;0.90;;;;;;;4.95;97.68;99947.88;107988;1281;61937;-82
2022/02/06 02:54:09;;;;;;;4.00;1.00;;;;;;;4.93;98.20;99935.15;107814;1281;75994;-82
2022/02/06 02:56:48;;;;;;;3.70;1.10;;;;;;;4.88;98.46;99923.85;108013;1281;71754;-82
2022/02/06 03:00:30;;;;;;;1.70;1.00;;;;;;;4.86;99.12;99924.94;107599;1281;74028;-83
2022/02/06 03:02:24;;;;;;;3.00;0.80;;;;;;;4.85;99.46;99929.23;107713;1282;62534;-83
2022/02/06 03:05:06;;;;;;;;;;;;;;;;;;;;;
2022/02/06 03:07:35;;;;;;;2.20;1.10;;;;;;;4.81;99.98;99902.48;107989;1281;75303;-83
2022/02/06 03:10:27;;;;;;;2.00;1.20;;;;;;;4.79;100.00;99902.92;107880;1281;71794;-84
2022/02/06 03:13:10;;;;;;;3.40;0.90;;;;;;;4.77;100.00;99888.01;107900;1281;75040;-83
2022/02/06 03:15:59;;;;;;;;;;;;;;;;;;;;;
2022/02/06 03:18:42;;;;;;;;;;;;;;;;;;;;;
2022/02/06 03:21:44;;;;;;;2.90;1.10;;;;;;;4.75;100.00;99875.64;107844;1281;75173;-83
2022/02/06 03:24:42;;;;;;;2.10;1.50;;;;;;;4.73;100.00;99868.48;107813;1281;69809;-81
2022/02/06 03:27:15;;;;;;;3.10;1.40;;;;;;;4.73;100.00;99877.92;107663;1283;74074;-82
2022/02/06 03:30:03;;;;;;;;;;;;;;;;;;;;;
2022/02/06 03:33:21;;;;;;;3.40;0.90;;;;;;;4.71;100.00;99858.88;107744;1281;61361;-82
2022/02/06 03:36:41;;;;;;;4.00;1.00;;;;;;;4.72;100.00;99859.83;107986;1281;75040;-81
2022/02/06 03:40:18;;;;;;;1.20;0.80;;;;;;;4.71;100.00;99852.94;107993;1281;72435;-82
2022/02/06 03:44:05;;;;;;;4.70;0.90;;;;;;;4.68;100.00;99847.21;107757;1281;73492;-83
2022/02/06 03:50:33;;;;;;;2.80;1.00;;;;;;;4.71;100.00;99841.02;107462;1281;61227;-83
2022/02/06 03:53:25;;;;;;;2.20;0.80;;;;;;;4.74;100.00;99828.29;107925;1281;75270;-83
2022/02/06 03:56:05;;;;;;;;;;;;;;;;;;;;;
2022/02/06 03:59:09;;;;;;;;;;;;;;;;;;;;;
2022/02/06 04:02:48;;;;;;;2.50;0.90;;;;;;;4.79;100.00;99820.91;107884;1282;62972;-82
2022/02/06 04:05:55;;;;;;;1.80;1.00;;;;;;;4.81;100.00;99809.71;107608;1283;60246;-82
2022/02/06 04:09:15;;;;;;;1.60;0.80;;;;;;;4.80;100.00;99810.24;107900;1282;76172;-83
2022/02/06 04:12:10;;;;;;;3.70;1.00;;;;;;;4.83;100.00;99807.36;107794;1282;72383;-82
2022/02/06 04:14:53;;;;;;;1.50;1.00;;;;;;;4.86;100.00;99801.45;107717;1282;73122;-81
2022/02/06 04:18:06;;;;;;;;;;;;;;;;;;;;;
2022/02/06 04:20:57;;;;;;;3.90;0.80;;;;;;;4.91;100.00;99796.91;107928;1282;60558;-82
2022/02/06 04:23:30;;;;;;;1.50;0.70;;;;;;;4.94;100.00;99786.80;107904;1282;76453;-82
2022/02/06 04:26:00;;;;;;;2.30;0.70;;;;;;;4.97;100.00;99790.70;107901;1282;70579;-81
2022/02/06 04:28:47;;;;;;;;;;;;;;;;;;;;;
2022/02/06 04:31:26;;;;;;;1.10;0.70;;;;;;;5.03;100.00;99785.86;107730;1282;60189;-82
2022/02/06 04:34:25;;;;;;;3.10;0.90;;;;;;;5.06;100.00;99776.77;107938;1281;60603;-82
2022/02/06 04:37:42;;;;;;;1.20;0.80;;;;;;;5.08;100.00;99767.80;107757;1282;76455;-81
2022/02/06 04:41:06;;;;;;;1.50;0.90;;;;;;;5.08;100.00;99766.81;107737;1284;73944;-81
2022/02/06 04:49:12;;;;;;;1.00;0.60;;;;;;;5.13;100.00;99756.85;107136;1287;61039;-81
2022/02/06 05:15:20;;;;;;;3.70;1.10;;;;;;;5.24;100.00;99712.66;107208;1287;60090;-82
2022/02/06 05:29:15;;;;;;;1.50;0.70;;;;;;;5.25;100.00;99694.27;107121;1287;73160;-81
2022/02/06 05:31:05;;;;;;;2.90;0.70;;;;;;;5.27;100.00;99697.18;107047;1284;61643;-82
2022/02/06 05:34:04;;;;;;;;;;;;;;;;;;;;;
2022/02/06 05:36:33;;;;;;;1.30;0.80;;;;;;;5.37;100.00;99689.15;107920;1282;76686;-82
2022/02/06 05:39:19;;;;;;;4.10;0.90;;;;;;;5.39;99.89;99685.20;107660;1283;71126;-83
2022/02/06 05:42:22;;;;;;;1.50;0.80;;;;;;;5.39;100.00;99685.07;107821;1282;72197;-83
2022/02/06 05:45:24;;;;;;;1.90;1.20;;;;;;;5.41;100.00;99678.53;107828;1282;61974;-84
2022/02/06 05:47:52;;;;;;;1.10;0.70;;;;;;;5.43;100.00;99676.59;107652;1284;60584;-83
2022/02/06 05:50:32;;;;;;;;;;;;;;;;;;;;;
2022/02/06 05:53:02;;;;;;;1.50;0.80;;;;;;;5.47;99.97;99677.23;107932;1282;71464;-82
2022/02/06 05:55:45;;;;;;;5.10;1.40;;;;;;;5.47;100.00;99671.16;107724;1284;74476;-82
2022/02/06 05:58:12;;;;;;;2.40;1.10;;;;;;;5.49;99.92;99665.53;107624;1284;62570;-83
2022/02/06 06:00:48;;;;;;;3.50;0.80;;;;;;;5.53;99.94;99655.86;107784;1282;60879;-82
2022/02/06 06:03:26;;;;;;;2.30;0.90;;;;;;;5.55;99.87;99663.85;108014;1282;75755;-83
2022/02/06 06:06:06;;;;;;;1.20;0.80;;;;;;;5.56;99.96;99660.41;107684;1282;71443;-82
2022/02/06 06:09:10;;;;;;;2.00;0.90;;;;;;;5.58;99.81;99655.65;107847;1282;73475;-83
2022/02/06 06:11:47;;;;;;;3.80;1.10;;;;;;;5.58;99.89;99669.46;107880;1282;62828;-82
2022/02/06 06:14:46;;;;;;;;;;;;;;;;;;;;;
2022/02/06 06:17:28;;;;;;;2.20;1.00;;;;;;;5.57;100.00;99642.92;107870;1282;75151;-82
2022/02/06 06:20:17;;;;;;;5.70;1.20;;;;;;;5.55;100.00;99643.16;107882;1282;71536;-82
2022/02/06 06:22:54;;;;;;;3.00;1.10;;;;;;;5.56;100.00;99638.12;107761;1282;74829;-82
2022/02/06 06:25:38;;;;;;;1.60;0.90;;;;;;;5.57;100.00;99633.12;107828;1282;61901;-81
2022/02/06 06:28:35;;;;;;;1.40;0.80;;;;;;;5.57;100.00;99618.23;107802;1282;62235;-82
2022/02/06 06:31:07;;;;;;;2.40;0.90;;;;;;;5.54;100.00;99612.18;107519;1282;76034;-82
2022/02/06 06:33:48;;;;;;;2.70;1.00;;;;;;;5.53;100.00;99610.91;107609;1284;71352;-82
2022/02/06 06:36:29;;;;;;;2.30;1.20;;;;;;;5.56;100.00;99620.59;107794;1284;72876;-83
2022/02/06 06:38:56;;;;;;;1.90;0.80;;;;;;;5.57;100.00;99600.18;107752;1282;60642;-82
2022/02/06 06:41:51;;;;;;;2.20;0.80;;;;;;;5.59;99.99;99602.67;107846;1280;62352;-82
2022/02/06 06:44:34;;;;;;;2.00;0.90;;;;;;;5.61;99.64;99600.45;107772;1282;75153;-82
2022/02/06 06:47:08;;;;;;;1.70;1.00;;;;;;;5.61;99.46;99596.15;107610;1284;71393;-82
2022/02/06 06:49:58;;;;;;;1.00;0.70;;;;;;;5.62;99.23;99585.16;107430;1284;74087;-81
2022/02/06 06:52:36;;;;;;;;;;;;;;;;;;;;;
2022/02/06 06:55:14;;;;;;;;;;;;;;;5.65;98.66;99582.27;107979;1281;61125;-82
2022/02/06 06:57:53;;;;;;;2.40;0.70;;;;;;;5.65;98.56;99578.59;107804;1282;76040;-83
2022/02/06 07:00:38;;;;;;;2.00;0.70;;;;;;;5.65;98.53;99579.93;108009;1280;71818;-81
2022/02/06 07:03:09;;;;;;;1.00;0.80;;;;;;;5.65;98.29;99568.71;108106;1281;72495;-81
2022/02/06 07:05:36;;;;;;;1.40;0.80;;;;;;;5.65;98.32;99563.25;108112;1280;61474;-81
2022/02/06 07:08:11;;;;;;;0.70;0.60;;;;;;;5.66;97.99;99558.45;107689;1280;60804;-81
2022/02/06 07:10:41;;;;;;;1.40;0.80;;;;;;;5.66;98.18;99562.95;107801;1281;75208;-81
2022/02/06 07:13:38;;;;;;;1.80;0.70;;;;;;;5.66;98.22;99558.62;107946;1281;72943;-81
2022/02/06 07:16:17;;;;;;;1.00;0.60;;;;;;;5.64;98.67;99558.46;107658;1281;73512;-82
2022/02/06 07:18:47;;;;;;;1.00;0.70;;;;;;;5.67;98.28;99555.15;107812;1281;61781;-83
2022/02/06 07:21:40;;;;;;;0.90;0.60;;;;;;;5.67;98.18;99566.59;107851;1281;59917;-82
2022/02/06 07:24:34;;;;;;;1.00;0.50;;;;;;;5.69;98.70;99554.46;108011;1281;73954;-82
2022/02/06 07:27:05;;;;;;;1.20;0.70;;;;;;;5.68;98.75;99553.15;107656;1282;72728;-82
2022/02/06 07:29:49;;;;;;;1.90;1.10;;;;;;;5.64;98.73;99542.17;105338;1282;3447557;-81
2022/02/06 07:32:22;;;;;;;1.50;0.70;;;;;;;5.68;99.00;99552.79;107927;1281;63009;-81
2022/02/06 07:34:58;;;;;;;1.20;0.70;;;;;;;5.68;99.25;99551.20;107810;1281;59093;-82
2022/02/06 07:37:25;;;;;;;1.90;0.60;;;;;;;5.68;99.36;99542.50;108047;1281;74953;-82
2022/02/06 07:40:08;;;;;;;2.30;0.70;;;;;;;5.69;99.37;99549.71;107437;1282;70285;-82
2022/02/06 07:42:48;;;;;;;0.60;0.50;;;;;;;5.70;99.45;99534.28;107718;1282;73822;-81
2022/02/06 07:45:22;;;;;;;0.80;0.70;;;;;;;5.70;99.75;99529.35;108050;1281;61421;-80
2022/02/06 07:47:51;;;;;;;1.50;0.80;;;;;;;5.71;99.61;99522.60;107785;1281;61095;-81
2022/02/06 07:50:39;;;;;;;1.60;0.70;;;;;;;5.72;99.80;99532.27;107872;1281;73644;-81
2022/02/06 07:53:47;;;;;;;2.00;0.90;;;;;;;5.72;100.00;99526.23;107724;1282;72386;-82
2022/02/06 07:56:15;;;;;;;1.20;0.70;;;;;;;5.70;100.00;99524.67;107839;1282;73065;-83
2022/02/06 07:58:59;;;;;;;1.60;0.80;;;;;;;5.69;100.00;99519.84;107762;1282;62096;-83
2022/02/06 08:01:38;;;;;;;1.50;1.00;;;;;;;5.70;100.00;99518.17;107768;1282;61863;-83
2022/02/06 08:04:25;;;;;;;1.60;0.70;;;;;;;5.73;100.00;99511.91;107666;1282;74959;-83
2022/02/06 08:06:59;;;;;;;4.40;1.00;;;;;;;5.76;100.00;99508.96;107595;1282;71418;-82
2022/02/06 08:12:25;;;;;;;1.00;0.60;;;;;;;5.79;100.00;99508.80;107561;1282;61473;-78
2022/02/06 08:15:03;;;;;;;1.70;0.80;;;;;;;5.81;100.00;99505.94;107629;1281;60682;-77
2022/02/06 08:17:53;;;;;;;1.60;0.90;;;;;;;5.81;100.00;99498.09;107592;1282;74951;-77
2022/02/06 08:20:20;;;;;;;2.20;0.90;;;;;;;5.81;100.00;99493.68;107437;1284;72136;-77
2022/02/06 08:22:48;;;;;;;1.40;0.80;;;;;;;5.82;100.00;99500.52;107578;1281;74124;-77
2022/02/06 08:25:15;;;;;;;1.50;0.80;;;;;;;5.84;100.00;99483.33;107440;1281;61472;-78
2022/02/06 08:27:49;;;;;;;0.90;0.50;;;;;;;5.86;100.00;99475.35;107628;1281;60612;-78
2022/02/06 08:30:23;;;;;;;3.70;0.80;;;;;;;5.89;100.00;99467.63;107651;1282;75133;-78
2022/02/06 08:32:53;;;;;;;1.30;0.70;;;;;;;5.93;100.00;99462.13;107693;1282;72498;-78
2022/02/06 08:35:22;;;;;;;1.90;0.80;;;;;;;5.97;100.00;99459.75;107606;1282;73151;-78
2022/02/06 08:37:54;;;;;;;1.20;0.70;;;;;;;6.03;100.00;99448.88;107616;1282;62789;-78
2022/02/06 08:41:12;;;;;;;;;;;;;;;;;;;;;
2022/02/06 08:44:12;;;;;;;;;;;;;;;;;;;;;
2022/02/06 08:47:06;;;;;;;;;;;;;;;;;;;;;
2022/02/06 08:50:30;;;;;;;0.90;0.60;;;;;;;6.18;100.00;99423.58;107482;1282;74465;-79
2022/02/06 08:53:56;;;;;;;1.00;0.60;;;;;;;6.21;100.00;99419.09;107748;1281;63208;-79
2022/02/06 08:56:26;;;;;;;2.30;0.70;;;;;;;6.25;100.00;99404.60;107797;1281;59073;-79
2022/02/06 08:58:56;;;;;;;0.80;0.40;;;;;;;6.30;99.88;99404.19;107767;1281;76567;-79
2022/02/06 09:01:25;;;;;;;3.50;0.80;;;;;;;6.34;99.43;99415.92;107793;1281;71302;-79
2022/02/06 09:04:07;;;;;;;1.50;0.70;;;;;;;6.40;99.36;99403.86;107540;1281;72960;-79
2022/02/06 09:06:48;;;;;;;3.10;1.20;;;;;;;6.44;99.39;99403.89;107498;1282;61606;-80
2022/02/06 09:09:21;;;;;;;1.40;0.80;;;;;;;6.46;99.64;99397.36;107756;1281;60575;-79
2022/02/06 09:11:51;;;;;;;1.10;0.70;;;;;;;6.50;98.55;99389.17;107607;1282;74885;-80
2022/02/06 09:14:21;;;;;;;2.30;0.80;;;;;;;6.53;98.24;99381.20;107809;1281;69992;-79
2022/02/06 09:16:54;;;;;;;1.00;0.70;;;;;;;6.57;98.34;99370.48;107612;1282;74034;-79
2022/02/06 09:19:42;;;;;;;1.20;0.80;;;;;;;6.59;98.16;99367.37;107483;1282;62495;-80
2022/02/06 09:22:36;;;;;;;0.70;0.50;;;;;;;6.64;97.37;99363.02;107488;1282;60793;-79
2022/02/06 09:25:39;;;;;;;0.90;0.60;;;;;;;6.69;96.74;99357.58;107829;1281;74771;-80
2022/02/06 09:28:06;;;;;;;1.40;0.70;;;;;;;6.74;95.84;99354.12;107435;1284;72861;-80
2022/02/06 09:30:35;;;;;;;0.90;0.60;;;;;;;6.79;95.95;99337.44;107805;1281;74636;-80
2022/02/06 09:35:33;;;;;;;1.90;0.90;;;;;;;6.82;95.88;99327.46;107559;1282;62169;-80
2022/02/06 09:38:02;;;;;;;1.00;0.70;;;;;;;6.80;95.62;99321.31;107581;1282;75210;-80
2022/02/06 09:40:34;;;;;;;0.90;0.50;;;;;;;6.82;95.84;99324.95;107759;1282;71506;-80
2022/02/06 09:43:04;;;;;;;1.00;0.50;;;;;;;6.82;96.13;99321.13;107838;1281;72093;-80
2022/02/06 09:45:46;;;;;;;1.10;0.60;;;;;;;6.82;95.96;99330.77;107809;1281;62535;-80
2022/02/06 09:48:22;;;;;;;0.80;0.60;;;;;;;6.82;95.99;99315.62;107836;1281;61074;-81
2022/02/06 09:50:57;;;;;;;1.20;0.60;;;;;;;6.80;96.45;99308.34;107834;1281;75089;-80
2022/02/06 09:53:53;;;;;;;;;;;;;;;6.77;96.77;99305.83;107720;1281;71396;-80
2022/02/06 09:56:23;;;;;;;0.90;0.50;;;;;;;6.73;96.65;99307.23;107685;1281;72484;-81
2022/02/06 09:58:59;;;;;;;2.00;0.90;;;;;;;6.69;97.46;99297.94;107702;1282;61379;-80
2022/02/06 10:01:28;;;;;;;4.00;2.10;;;;;;;6.63;98.02;99294.21;107534;1281;62231;-80
2022/02/06 10:04:06;;;;;;;1.00;0.70;;;;;;;6.58;98.65;99281.59;107638;1281;74950;-80
2022/02/06 10:06:52;;;;;;;1.30;0.80;;;;;;;6.53;99.08;99288.93;107470;1282;71598;-80
2022/02/06 10:09:54;;;;;;;0.70;0.50;;;;;;;6.48;99.28;99285.02;107618;1282;72919;-79
2022/02/06 10:12:27;;;;;;;0.80;0.50;;;;;;;6.45;99.64;99272.48;107616;1281;61640;-79
2022/02/06 10:14:54;;;;;;;0.70;0.50;;;;;;;6.41;99.86;99273.04;107633;1282;60695;-79
2022/02/06 10:17:23;;;;;;;1.30;0.70;;;;;;;6.40;99.86;99265.11;107608;1282;74356;-80
2022/02/06 10:19:52;;;;;;;1.20;0.60;;;;;;;6.39;99.90;99260.48;107566;1282;70458;-79
2022/02/06 10:22:41;;;;;;;0.70;0.40;;;;;;;6.39;99.88;99256.17;107564;1281;73173;-80
2022/02/06 10:25:11;;;;;;;0.60;0.20;;;;;;;6.36;99.86;99240.02;107594;1282;61647;-80
2022/02/06 10:28:04;;;;;;;0.80;0.40;;;;;;;6.35;99.97;99234.04;107730;1282;60647;-80
2022/02/06 10:30:47;;;;;;;0.40;0.30;;;;;;;6.34;100.00;99236.71;107680;1282;76014;-79
2022/02/06 10:33:21;;;;;;;0.70;0.40;;;;;;;6.35;99.99;99222.36;107599;1282;71573;-79
2022/02/06 10:35:54;;;;;;;1.00;0.50;;;;;;;6.35;100.00;99213.50;107469;1282;74479;-79
2022/02/06 10:38:33;;;;;;;1.10;0.40;;;;;;;6.35;99.94;99211.70;107482;1284;61934;-78
2022/02/06 10:41:36;;;;;;;0.90;0.40;;;;;;;6.36;99.93;99204.40;107309;1284;61488;-79
2022/02/06 10:44:18;;;;;;;0.90;0.40;;;;;;;6.38;99.94;99194.45;107743;1282;74952;-79
2022/02/06 10:47:01;;;;;;;0.80;0.40;;;;;;;6.38;99.87;99183.92;107746;1282;71790;-79
2022/02/06 10:50:30;;;;;;;1.00;0.50;;;;;;;6.40;100.00;99175.76;107701;1282;72742;-79
2022/02/06 10:53:44;;;;;;;;;;;;;;;;;;;;;
2022/02/06 10:57:13;;;;;;;1.10;0.50;;;;;;;6.37;99.66;99152.83;107130;1284;60821;-79
2022/02/06 11:00:46;;;;;;;0.30;0.30;;;;;;;6.34;99.56;99134.35;107500;1282;75993;-79
2022/02/06 11:07:29;;;;;;;0.40;0.20;;;;;;;6.32;99.07;99123.40;107644;1282;71402;-82
2022/02/06 11:10:59;;;;;;;0.60;0.40;;;;;;;6.33;98.27;99107.64;107816;1282;64992;-81
2022/02/06 11:14:50;;;;;;;0.30;0.10;;;;;;;6.34;97.94;99095.18;107236;1282;60732;-81
2022/02/06 11:17:57;;;;;;;0.70;0.30;;;;;;;6.37;97.72;99083.94;107530;1282;75765;-81
2022/02/06 11:21:02;;;;;;;0.60;0.30;;;;;;;6.36;97.51;99067.37;107693;1282;71556;-82
2022/02/06 11:24:05;;;;;;;0.40;0.20;;;;;;;6.36;97.21;99061.12;107523;1284;72113;-81
2022/02/06 11:26:44;;;;;;;0.60;0.20;;;;;;;6.33;96.96;99046.42;107547;1282;62752;-79
2022/02/06 11:30:02;;;;;;;0.30;0.20;;;;;;;6.34;96.98;99032.21;107753;1280;60777;-79
2022/02/06 11:32:41;;;;;;;;;;;;;;;;;;;;;
2022/02/06 11:35:35;;;;;;;0.10;0.10;;;;;;;6.33;96.61;99016.98;107584;1283;70789;-79
2022/02/06 11:45:11;;;;;;;0.30;0.20;;;;;;;6.32;96.18;98983.71;107826;1282;61026;-80
2022/02/06 11:48:18;;;;;;;;;;;;;;;;;;;;;
2022/02/06 11:51:56;;;;;;;;;;;;;;;;;;;;;
2022/02/06 11:55:33;;;;;;;0.10;0.10;;;;;;;6.28;95.78;98945.58;107520;1282;74135;-84
2022/02/06 11:59:02;;;;;;;0.20;0.10;;;;;;;6.27;95.26;98934.73;107071;1287;60892;-80
2022/02/06 12:02:29;;;;;;;0.10;0.10;;;;;;;6.25;95.08;98919.71;107235;1282;61622;-80
2022/02/06 12:05:36;;;;;;;0.10;0.10;;;;;;;6.21;95.37;98899.19;107397;1284;75445;-80
2022/02/06 12:08:53;;;;;;;;;;;;;;;;;;;;;
2022/02/06 12:12:14;;;;;;;0.10;0.10;;;;;;;6.16;94.65;98889.98;107403;1282;73088;-82
2022/02/06 12:15:45;;;;;;;0.30;0.10;;;;;;;6.14;94.40;98866.77;107820;1282;61492;-82
2022/02/06 12:22:30;;;;;;;;;;;;;;;;;;;;;
2022/02/06 12:26:09;;;;;;;;;;;;;;;;;;;;;
2022/02/06 12:33:21;;;;;;;;;;;;;;;;;;;;;
2022/02/06 12:40:15;;;;;;;0.80;0.20;;;;;;;5.89;94.07;98799.73;107616;1284;74076;-83
2022/02/06 12:43:11;;;;;;;;;;;;;;;5.87;94.34;98782.45;107776;1282;72427;-79
2022/02/06 12:46:19;;;;;;;;;;;;;;;5.83;94.80;98774.48;107705;1282;74135;-81
2022/02/06 12:49:47;;;;;;;1.40;0.20;;;;;;;5.78;94.30;98759.46;107834;1282;61957;-81
2022/02/06 12:53:17;;;;;;;0.20;0.20;;;;;;;5.80;94.84;98755.95;107639;1282;61672;-81
2022/02/06 12:56:32;;;;;;;;;;;;;;;;;;;;;
2022/02/06 12:59:42;;;;;;;0.30;0.20;;;;;;;5.76;94.33;98746.86;107536;1284;71564;-80
2022/02/06 13:02:34;;;;;;;;;;;;;;;;;;;;;
2022/02/06 13:08:06;;;;;;;0.30;0.10;;;;;;;5.61;96.06;98712.67;107485;1282;61582;-78
2022/02/06 13:10:37;;;;;;;0.60;0.10;;;;;;;5.56;96.35;98716.61;107708;1282;75039;-78
2022/02/06 13:13:08;;;;;;;1.00;0.20;;;;;;;5.54;96.49;98698.98;107667;1281;72485;-78
2022/02/06 13:18:50;;;;;;;2.00;0.20;;;;;;;5.48;96.60;98687.70;107662;1283;61477;-79
2022/02/06 13:21:56;;;;;;;;;;;;;;;;;;;;;
2022/02/06 13:34:40;;;;;;;0.70;0.10;;;;;;;5.39;97.14;98663.16;107559;1284;61684;-80
2022/02/06 13:38:36;;;;;;;0.90;0.20;;;;;;;5.40;97.06;98678.98;107606;1283;61367;-79
2022/02/06 13:41:31;;;;;;;1.10;0.20;;;;;;;5.40;96.23;98665.74;107397;1284;75198;-79
2022/02/06 13:44:22;;;;;;;;;;;;;;;;;;;;;
2022/02/06 13:47:54;;;;;;;0.80;0.40;;;;;;;5.36;96.29;98651.93;107664;1282;73861;-78
2022/02/06 13:50:29;;;;;;;1.50;0.10;;;;;;;5.34;95.95;98659.61;107478;1282;61020;-77
2022/02/06 13:54:06;;;;;;;0.10;0.10;;;;;;;5.35;95.15;98663.05;107681;1282;60580;-78
2022/02/06 13:57:27;;;;;;;;;;;;;;;;;;;;;
2022/02/06 14:00:39;;;;;;;0.20;0.20;;;;;;;5.28;96.26;98641.77;107398;1282;73077;-78
2022/02/06 14:03:20;;;;;;;0.70;0.20;;;;;;;5.24;96.17;98652.66;107529;1282;74325;-78
2022/02/06 14:06:16;;;;;;;;;;;;;;;;;;;;;
2022/02/06 14:12:48;;;;;;;0.60;0.20;;;;;;;5.16;96.27;98670.63;107627;1282;76116;-77
2022/02/06 14:16:15;;;;;;;1.10;0.10;;;;;;;5.10;95.75;98668.52;107400;1284;72401;-77
2022/02/06 14:18:53;;;;;;;0.20;0.10;;;;;;;5.02;97.38;98692.23;107412;1282;72966;-76
2022/02/06 14:21:43;;;;;;;0.10;0.00;;;;;;;4.94;97.85;98720.11;107531;1282;61487;-76
2022/02/06 14:24:21;;;;;;;0.10;0.10;;;;;;;4.82;98.50;98726.34;107582;1282;60669;-76
2022/02/06 14:27:38;;;;;;;1.90;0.80;;;;;;;4.72;98.98;98751.98;107472;1282;75879;-76
2022/02/06 14:30:31;;;;;;;0.20;0.10;;;;;;;4.58;100.00;98782.00;107582;1281;72522;-76
2022/02/06 14:33:01;;;;;;;0.40;0.10;;;;;;;4.40;100.00;98797.28;107724;1282;74125;-76
2022/02/06 14:36:02;;;;;;;0.90;0.20;;;;;;;4.23;100.00;98809.20;107678;1282;61419;-76
2022/02/06 14:41:58;;;;;;;0.30;0.20;;;;;;;3.77;100.00;98818.67;107563;1275;75957;-82
2022/02/06 14:44:26;;;;;;;2.90;0.20;;;;;;;3.60;100.00;98813.92;107777;1281;72678;-83
2022/02/06 14:46:53;;;;;;;0.10;0.10;;;;;;;3.48;100.00;98813.68;107798;1281;72960;-83
2022/02/06 14:49:19;;;;;;;0.50;0.30;;;;;;;3.35;100.00;98821.80;107488;1284;62627;-82
2022/02/06 14:51:47;;;;;;;6.00;0.40;;;;;;;3.25;100.00;98814.36;107736;1282;61386;-81
2022/02/06 14:54:20;;;;;;;0.20;0.10;;;;;;;3.17;100.00;98799.39;107773;1282;74872;-81
2022/02/06 14:56:48;;;;;;;0.70;0.20;;;;;;;3.13;100.00;98803.27;107799;1282;71755;-81
2022/02/06 14:59:15;;;;;;;0.10;0.10;;;;;;;3.11;100.00;98800.64;107538;1281;74050;-80
2022/02/06 15:01:42;;;;;;;1.80;0.50;;;;;;;3.11;100.00;98793.98;107463;1282;60186;-81
2022/02/06 15:04:10;;;;;;;1.10;0.20;;;;;;;3.12;100.00;98789.81;107740;1282;60673;-82
2022/02/06 15:06:37;;;;;;;0.40;0.20;;;;;;;3.14;100.00;98789.95;107761;1282;74834;-81
2022/02/06 15:09:03;;;;;;;1.60;0.20;;;;;;;3.17;100.00;98773.06;107563;1282;71721;-80
2022/02/06 15:11:30;;;;;;;0.70;0.30;;;;;;;3.20;100.00;98765.17;107714;1282;74504;-80
2022/02/06 15:13:56;;;;;;;0.40;0.20;;;;;;;3.22;100.00;98763.36;107728;1282;59446;-80
2022/02/06 15:16:26;;;;;;;3.10;0.30;;;;;;;3.25;100.00;98774.38;107765;1282;59125;-81
2022/02/06 15:21:20;;;;;;;0.40;0.20;;;;;;;3.31;100.00;98800.47;107469;1282;71497;-79
2022/02/06 15:23:47;;;;;;;0.60;0.30;;;;;;;3.34;100.00;98802.55;107529;1284;74082;-79
2022/02/06 15:26:15;;;;;;;0.50;0.30;;;;;;;3.37;100.00;98800.09;107583;1282;61432;-82
2022/02/06 15:28:41;;;;;;;1.30;0.20;;;;;;;3.40;100.00;98808.89;107741;1281;60810;-79
2022/02/06 15:31:08;;;;;;;0.60;0.40;;;;;;;3.42;100.00;98813.53;107512;1283;75564;-81
2022/02/06 15:33:35;;;;;;;2.60;0.30;;;;;;;3.46;100.00;98812.06;107711;1282;59393;-81
2022/02/06 15:36:04;;;;;;;1.00;0.50;;;;;;;3.49;100.00;98819.05;107786;1282;74031;-81
2022/02/06 15:38:32;;;;;;;1.00;0.40;;;;;;;3.51;100.00;98831.69;107705;1281;61503;-81
2022/02/06 15:41:00;;;;;;;0.50;0.30;;;;;;;3.54;100.00;98839.71;107554;1282;61970;-80
2022/02/06 15:43:27;;;;;;;0.70;0.40;;;;;;;3.57;100.00;98844.81;107497;1282;76163;-81
2022/02/06 15:45:56;;;;;;;2.00;0.50;;;;;;;3.60;100.00;98847.09;107803;1282;71374;-83
2022/02/06 15:48:23;;;;;;;2.80;0.50;;;;;;;3.62;100.00;98846.15;107716;1282;72140;-81
2022/02/06 15:50:49;;;;;;;0.70;0.40;;;;;;;3.65;100.00;98844.74;107777;1282;61411;-81
2022/02/06 15:53:17;;;;;;;0.70;0.30;;;;;;;3.68;100.00;98854.42;107731;1282;61609;-83
2022/02/06 15:55:44;;;;;;;1.30;0.40;;;;;;;3.72;100.00;98851.74;107683;1281;76050;-81
2022/02/06 15:58:11;;;;;;;0.90;0.30;;;;;;;3.75;100.00;98859.35;107608;1282;71734;-83
2022/02/06 16:00:37;;;;;;;3.30;0.50;;;;;;;3.81;100.00;98852.06;107571;1282;73130;-82
2022/02/06 16:03:04;;;;;;;0.50;0.30;;;;;;;3.85;100.00;98856.98;107653;1282;61363;-81
2022/02/06 16:05:30;;;;;;;1.80;0.50;;;;;;;3.91;100.00;98853.85;107618;1282;59676;-81
2022/02/06 16:07:57;;;;;;;1.70;0.50;;;;;;;3.95;100.00;98849.02;107691;1282;59111;-82